Weather at Dublin Airport

Public forecast

Using degrees Celsius for public forecast. Weather courtesy of forecast.io.

Current aviation weather report (METAR) for Dublin Airport

Retrieved 2021/10/22 07:30 UTC (0 seconds ago):

EIDW 220730Z 26013KT 220V290 8000 -RA SCT008 BKN010 BKN016 08/07 Q1019 BECMG 9999 SCT010

Aviation forecast (TAF) for Dublin Airport

Retrieved 2021/10/22 06:11 UTC (1 hour ago):

TAF EIDW 220500Z 2206/2306 25012KT 9999 FEW017 BKN030 BECMG 2217/2219 22007KT BECMG 2223/2301 17007KT